KRCM

Skyhaven Airport

Warrensburg, Missouri, USA
METAR KRCM 181315Z AUTO 16003KT 10SM CLR M01/M04 A3013 RMK AO2
Observed Flight Rules
Dec-18 @ 13:15 UTC (12 minutes ago) Visual Flight Rules
Wind Visibility Clouds
160° at 3 knots 10 miles
  • Clear skies
Temperatures Readings
Current -1°C / 30°F
Dewpoint -4°C / 25°F
Humidity 80%
Altimeter 30.13" Hg
Pressure 1020 hPa
Elevation 244
METAR KRCM 181315Z AUTO 16003KT 10SM CLR M01/M04 A3013 RMK AO2
Observed Flight Rules
Dec-18 @ 13:15 UTC
(12 minutes ago)
VFR
Wind Visibility
160° at 3 knots 10 miles
Clouds
  • Clear skies
Temperature Dewpoint
-1°C / 30°F -4°C / 25°F
Humidity Altimeter Pressure
80% 30.13" Hg 1020 hPa